Terminal Aerodrome Forecast
Issued by NWS

Home | Current Version | Previous Version | Text Only | Print | Product List | Glossary On
Versions: 1 2 3 4 5 6 7 8 9 10 11 12 13 14 15 16 17 18 19 20 21 22 23 24 25
476
FTUS41 KBUF 231120
TAFIAG
TAF
KIAG 231120Z 2312/2412 00000KT 6SM BR SKC
     FM231400 22006KT P6SM SCT250
     FM231700 24008KT P6SM SCT100
     FM240100 20004KT P6SM SKC
     FM240700 VRB03KT 3SM BR SKC=

USA.gov is the U.S. government's official web portal to all federal, state and local government web resources and services.